sensor_id;sensor_type;location;lat;lon;timestamp;P1;durP1;ratioP1;P2;durP2;ratioP2
16099;SDS011;8154;50.830;12.082;2023-09-19T00:00:46;2.20;;;1.27;;
16099;SDS011;8154;50.830;12.082;2023-09-19T00:03:12;1.85;;;1.10;;
16099;SDS011;8154;50.830;12.082;2023-09-19T00:05:45;1.80;;;1.10;;
16099;SDS011;8154;50.830;12.082;2023-09-19T00:08:13;1.90;;;1.10;;
16099;SDS011;8154;50.830;12.082;2023-09-19T00:10:39;1.88;;;1.10;;
16099;SDS011;8154;50.830;12.082;2023-09-19T00:13:06;1.83;;;1.00;;
16099;SDS011;8154;50.830;12.082;2023-09-19T00:15:40;2.13;;;1.02;;
16099;SDS011;8154;50.830;12.082;2023-09-19T00:18:07;2.00;;;1.20;;
16099;SDS011;8154;50.830;12.082;2023-09-19T00:20:37;2.35;;;1.10;;
16099;SDS011;8154;50.830;12.082;2023-09-19T00:23:04;2.22;;;1.10;;
16099;SDS011;8154;50.830;12.082;2023-09-19T00:25:31;2.67;;;1.20;;
16099;SDS011;8154;50.830;12.082;2023-09-19T00:28:03;1.73;;;1.05;;
16099;SDS011;8154;50.830;12.082;2023-09-19T00:30:30;1.65;;;1.00;;
16099;SDS011;8154;50.830;12.082;2023-09-19T00:32:56;1.80;;;1.08;;
16099;SDS011;8154;50.830;12.082;2023-09-19T00:35:22;2.20;;;1.20;;
16099;SDS011;8154;50.830;12.082;2023-09-19T00:37:53;1.80;;;0.97;;
16099;SDS011;8154;50.830;12.082;2023-09-19T00:40:33;1.95;;;1.08;;
16099;SDS011;8154;50.830;12.082;2023-09-19T00:43:13;2.60;;;1.20;;
16099;SDS011;8154;50.830;12.082;2023-09-19T00:45:39;1.70;;;0.93;;
16099;SDS011;8154;50.830;12.082;2023-09-19T00:48:09;2.03;;;1.05;;
16099;SDS011;8154;50.830;12.082;2023-09-19T00:50:36;2.03;;;1.10;;
16099;SDS011;8154;50.830;12.082;2023-09-19T00:53:02;1.85;;;1.08;;
16099;SDS011;8154;50.830;12.082;2023-09-19T00:55:33;2.92;;;1.08;;
16099;SDS011;8154;50.830;12.082;2023-09-19T00:58:03;2.38;;;1.00;;
16099;SDS011;8154;50.830;12.082;2023-09-19T01:00:32;2.20;;;1.13;;
16099;SDS011;8154;50.830;12.082;2023-09-19T01:03:00;2.37;;;1.30;;
16099;SDS011;8154;50.830;12.082;2023-09-19T01:05:30;1.75;;;0.90;;
16099;SDS011;8154;50.830;12.082;2023-09-19T01:07:56;1.73;;;1.10;;
16099;SDS011;8154;50.830;12.082;2023-09-19T01:10:23;1.77;;;0.95;;
16099;SDS011;8154;50.830;12.082;2023-09-19T01:21:26;2.38;;;1.20;;
16099;SDS011;8154;50.830;12.082;2023-09-19T01:29:46;1.67;;;1.00;;
16099;SDS011;8154;50.830;12.082;2023-09-19T01:32:18;1.70;;;0.98;;
16099;SDS011;8154;50.830;12.082;2023-09-19T01:34:52;1.67;;;1.00;;
16099;SDS011;8154;50.830;12.082;2023-09-19T01:37:23;2.00;;;1.00;;
16099;SDS011;8154;50.830;12.082;2023-09-19T01:39:56;1.80;;;0.85;;
16099;SDS011;8154;50.830;12.082;2023-09-19T01:45:27;1.90;;;1.20;;
16099;SDS011;8154;50.830;12.082;2023-09-19T01:51:05;2.13;;;0.90;;
16099;SDS011;8154;50.830;12.082;2023-09-19T01:53:37;1.85;;;1.00;;
16099;SDS011;8154;50.830;12.082;2023-09-19T01:56:12;2.10;;;1.07;;
16099;SDS011;8154;50.830;12.082;2023-09-19T01:58:47;1.60;;;0.90;;
16099;SDS011;8154;50.830;12.082;2023-09-19T02:01:18;1.75;;;1.00;;
16099;SDS011;8154;50.830;12.082;2023-09-19T02:04:07;1.85;;;0.90;;
16099;SDS011;8154;50.830;12.082;2023-09-19T02:06:40;1.58;;;0.90;;
16099;SDS011;8154;50.830;12.082;2023-09-19T02:09:09;1.60;;;1.00;;
16099;SDS011;8154;50.830;12.082;2023-09-19T02:11:35;2.10;;;1.13;;
16099;SDS011;8154;50.830;12.082;2023-09-19T02:14:03;1.60;;;0.90;;
16099;SDS011;8154;50.830;12.082;2023-09-19T02:16:35;1.98;;;0.90;;
16099;SDS011;8154;50.830;12.082;2023-09-19T02:19:03;2.13;;;1.10;;
16099;SDS011;8154;50.830;12.082;2023-09-19T02:21:31;1.83;;;1.00;;
16099;SDS011;8154;50.830;12.082;2023-09-19T02:23:58;1.70;;;1.00;;
16099;SDS011;8154;50.830;12.082;2023-09-19T02:26:25;1.92;;;1.00;;
16099;SDS011;8154;50.830;12.082;2023-09-19T02:29:12;1.42;;;1.00;;
16099;SDS011;8154;50.830;12.082;2023-09-19T02:31:39;1.77;;;0.90;;
16099;SDS011;8154;50.830;12.082;2023-09-19T02:34:08;1.80;;;1.00;;
16099;SDS011;8154;50.830;12.082;2023-09-19T02:36:35;1.88;;;1.00;;
16099;SDS011;8154;50.830;12.082;2023-09-19T02:39:02;1.75;;;1.00;;
16099;SDS011;8154;50.830;12.082;2023-09-19T02:41:30;1.83;;;1.00;;
16099;SDS011;8154;50.830;12.082;2023-09-19T02:43:57;1.45;;;0.98;;
16099;SDS011;8154;50.830;12.082;2023-09-19T02:46:24;1.70;;;1.00;;
16099;SDS011;8154;50.830;12.082;2023-09-19T02:48:50;1.48;;;0.88;;
16099;SDS011;8154;50.830;12.082;2023-09-19T02:51:16;1.77;;;0.90;;
16099;SDS011;8154;50.830;12.082;2023-09-19T02:53:42;1.70;;;0.90;;
16099;SDS011;8154;50.830;12.082;2023-09-19T02:56:11;1.50;;;0.95;;
16099;SDS011;8154;50.830;12.082;2023-09-19T02:58:39;1.60;;;1.00;;
16099;SDS011;8154;50.830;12.082;2023-09-19T03:01:10;2.20;;;1.00;;
16099;SDS011;8154;50.830;12.082;2023-09-19T03:03:40;1.77;;;0.90;;
16099;SDS011;8154;50.830;12.082;2023-09-19T03:06:06;2.33;;;1.10;;
16099;SDS011;8154;50.830;12.082;2023-09-19T03:08:35;1.50;;;1.00;;
16099;SDS011;8154;50.830;12.082;2023-09-19T03:11:05;1.70;;;0.80;;
16099;SDS011;8154;50.830;12.082;2023-09-19T03:13:34;2.30;;;0.90;;
16099;SDS011;8154;50.830;12.082;2023-09-19T03:16:02;1.55;;;0.85;;
16099;SDS011;8154;50.830;12.082;2023-09-19T03:18:34;1.48;;;0.90;;
16099;SDS011;8154;50.830;12.082;2023-09-19T03:21:00;1.65;;;0.95;;
16099;SDS011;8154;50.830;12.082;2023-09-19T03:23:27;1.33;;;0.80;;
16099;SDS011;8154;50.830;12.082;2023-09-19T03:25:54;1.38;;;0.80;;
16099;SDS011;8154;50.830;12.082;2023-09-19T03:28:21;1.40;;;0.85;;
16099;SDS011;8154;50.830;12.082;2023-09-19T03:30:58;1.58;;;1.02;;
16099;SDS011;8154;50.830;12.082;2023-09-19T03:33:28;1.42;;;0.93;;
16099;SDS011;8154;50.830;12.082;2023-09-19T03:35:57;1.70;;;0.90;;
16099;SDS011;8154;50.830;12.082;2023-09-19T03:38:25;2.03;;;0.98;;
16099;SDS011;8154;50.830;12.082;2023-09-19T03:40:51;1.73;;;1.10;;
16099;SDS011;8154;50.830;12.082;2023-09-19T03:43:17;1.63;;;0.90;;
16099;SDS011;8154;50.830;12.082;2023-09-19T03:45:43;1.90;;;0.93;;
16099;SDS011;8154;50.830;12.082;2023-09-19T03:48:11;1.70;;;0.90;;
16099;SDS011;8154;50.830;12.082;2023-09-19T03:50:47;1.75;;;0.90;;
16099;SDS011;8154;50.830;12.082;2023-09-19T03:53:14;1.48;;;0.95;;
16099;SDS011;8154;50.830;12.082;2023-09-19T03:55:40;2.08;;;1.08;;
16099;SDS011;8154;50.830;12.082;2023-09-19T03:58:06;1.25;;;0.80;;
16099;SDS011;8154;50.830;12.082;2023-09-19T04:00:32;1.53;;;1.00;;
16099;SDS011;8154;50.830;12.082;2023-09-19T04:03:00;1.67;;;0.93;;
16099;SDS011;8154;50.830;12.082;2023-09-19T04:05:31;1.30;;;0.80;;
16099;SDS011;8154;50.830;12.082;2023-09-19T04:07:58;1.88;;;0.90;;
16099;SDS011;8154;50.830;12.082;2023-09-19T04:10:24;1.95;;;0.90;;
16099;SDS011;8154;50.830;12.082;2023-09-19T04:12:52;1.60;;;0.80;;
16099;SDS011;8154;50.830;12.082;2023-09-19T04:15:20;1.52;;;0.93;;
16099;SDS011;8154;50.830;12.082;2023-09-19T04:17:49;1.60;;;0.85;;
16099;SDS011;8154;50.830;12.082;2023-09-19T04:20:18;1.52;;;0.80;;
16099;SDS011;8154;50.830;12.082;2023-09-19T04:22:45;1.55;;;0.98;;
16099;SDS011;8154;50.830;12.082;2023-09-19T04:25:13;1.27;;;0.80;;
16099;SDS011;8154;50.830;12.082;2023-09-19T04:27:40;1.95;;;1.10;;
16099;SDS011;8154;50.830;12.082;2023-09-19T04:30:08;1.50;;;0.82;;
16099;SDS011;8154;50.830;12.082;2023-09-19T04:32:39;1.50;;;0.90;;
16099;SDS011;8154;50.830;12.082;2023-09-19T04:35:07;1.42;;;0.88;;
16099;SDS011;8154;50.830;12.082;2023-09-19T04:37:36;2.13;;;0.90;;
16099;SDS011;8154;50.830;12.082;2023-09-19T04:40:06;1.30;;;0.88;;
16099;SDS011;8154;50.830;12.082;2023-09-19T04:42:38;1.50;;;0.80;;
16099;SDS011;8154;50.830;12.082;2023-09-19T04:45:06;1.55;;;0.90;;
16099;SDS011;8154;50.830;12.082;2023-09-19T04:47:34;1.80;;;1.10;;
16099;SDS011;8154;50.830;12.082;2023-09-19T04:50:00;1.50;;;0.90;;
16099;SDS011;8154;50.830;12.082;2023-09-19T04:52:30;1.48;;;0.80;;
16099;SDS011;8154;50.830;12.082;2023-09-19T04:54:57;1.70;;;1.00;;
16099;SDS011;8154;50.830;12.082;2023-09-19T04:57:23;1.33;;;0.88;;
16099;SDS011;8154;50.830;12.082;2023-09-19T04:59:51;1.60;;;0.90;;
16099;SDS011;8154;50.830;12.082;2023-09-19T05:02:17;1.50;;;0.80;;
16099;SDS011;8154;50.830;12.082;2023-09-19T05:04:45;1.27;;;0.70;;
16099;SDS011;8154;50.830;12.082;2023-09-19T05:07:13;1.42;;;0.90;;
16099;SDS011;8154;50.830;12.082;2023-09-19T05:09:39;1.52;;;0.90;;
16099;SDS011;8154;50.830;12.082;2023-09-19T05:12:08;1.30;;;0.80;;
16099;SDS011;8154;50.830;12.082;2023-09-19T05:14:36;1.73;;;0.90;;
16099;SDS011;8154;50.830;12.082;2023-09-19T05:17:04;1.60;;;0.93;;
16099;SDS011;8154;50.830;12.082;2023-09-19T05:19:30;1.75;;;1.00;;
16099;SDS011;8154;50.830;12.082;2023-09-19T05:21:57;1.30;;;0.80;;
16099;SDS011;8154;50.830;12.082;2023-09-19T05:24:24;1.42;;;0.80;;
16099;SDS011;8154;50.830;12.082;2023-09-19T05:26:52;1.60;;;0.90;;
16099;SDS011;8154;50.830;12.082;2023-09-19T05:29:18;1.63;;;0.90;;
16099;SDS011;8154;50.830;12.082;2023-09-19T05:31:44;1.50;;;0.90;;
16099;SDS011;8154;50.830;12.082;2023-09-19T05:34:11;1.45;;;0.80;;
16099;SDS011;8154;50.830;12.082;2023-09-19T05:36:41;1.52;;;0.93;;
16099;SDS011;8154;50.830;12.082;2023-09-19T05:39:11;2.30;;;0.90;;
16099;SDS011;8154;50.830;12.082;2023-09-19T05:41:39;1.17;;;0.70;;
16099;SDS011;8154;50.830;12.082;2023-09-19T05:44:05;1.38;;;0.90;;
16099;SDS011;8154;50.830;12.082;2023-09-19T05:46:32;1.17;;;0.70;;
16099;SDS011;8154;50.830;12.082;2023-09-19T05:48:59;1.48;;;0.90;;
16099;SDS011;8154;50.830;12.082;2023-09-19T05:51:25;1.30;;;0.70;;
16099;SDS011;8154;50.830;12.082;2023-09-19T05:53:54;2.50;;;1.10;;
16099;SDS011;8154;50.830;12.082;2023-09-19T05:56:21;1.60;;;1.00;;
16099;SDS011;8154;50.830;12.082;2023-09-19T05:58:48;1.85;;;0.90;;
16099;SDS011;8154;50.830;12.082;2023-09-19T06:01:17;1.65;;;0.93;;
16099;SDS011;8154;50.830;12.082;2023-09-19T06:03:46;1.20;;;0.70;;
16099;SDS011;8154;50.830;12.082;2023-09-19T06:06:13;1.55;;;0.80;;
16099;SDS011;8154;50.830;12.082;2023-09-19T06:08:39;1.20;;;0.80;;
16099;SDS011;8154;50.830;12.082;2023-09-19T06:11:07;1.50;;;0.90;;
16099;SDS011;8154;50.830;12.082;2023-09-19T06:13:36;1.67;;;0.90;;
16099;SDS011;8154;50.830;12.082;2023-09-19T06:16:05;1.20;;;0.80;;
16099;SDS011;8154;50.830;12.082;2023-09-19T06:18:34;1.20;;;0.70;;
16099;SDS011;8154;50.830;12.082;2023-09-19T06:21:07;1.63;;;0.98;;
16099;SDS011;8154;50.830;12.082;2023-09-19T06:23:34;1.38;;;0.80;;
16099;SDS011;8154;50.830;12.082;2023-09-19T06:26:01;1.30;;;0.80;;
16099;SDS011;8154;50.830;12.082;2023-09-19T06:28:29;1.47;;;0.80;;
16099;SDS011;8154;50.830;12.082;2023-09-19T06:30:55;1.48;;;0.70;;
16099;SDS011;8154;50.830;12.082;2023-09-19T06:33:21;1.30;;;0.80;;
16099;SDS011;8154;50.830;12.082;2023-09-19T06:35:47;1.58;;;0.80;;
16099;SDS011;8154;50.830;12.082;2023-09-19T06:38:13;1.73;;;0.80;;
16099;SDS011;8154;50.830;12.082;2023-09-19T06:40:42;1.60;;;0.80;;
16099;SDS011;8154;50.830;12.082;2023-09-19T06:43:09;1.58;;;0.90;;
16099;SDS011;8154;50.830;12.082;2023-09-19T06:45:36;1.63;;;0.82;;
16099;SDS011;8154;50.830;12.082;2023-09-19T06:48:03;1.20;;;0.80;;
16099;SDS011;8154;50.830;12.082;2023-09-19T06:50:31;1.95;;;0.85;;
16099;SDS011;8154;50.830;12.082;2023-09-19T06:52:58;1.13;;;0.80;;
16099;SDS011;8154;50.830;12.082;2023-09-19T06:55:25;1.27;;;0.70;;
16099;SDS011;8154;50.830;12.082;2023-09-19T06:57:57;1.00;;;0.70;;
16099;SDS011;8154;50.830;12.082;2023-09-19T07:00:24;1.35;;;0.82;;
16099;SDS011;8154;50.830;12.082;2023-09-19T07:02:56;1.30;;;0.75;;
16099;SDS011;8154;50.830;12.082;2023-09-19T07:05:30;1.47;;;0.70;;
16099;SDS011;8154;50.830;12.082;2023-09-19T07:07:58;1.80;;;0.80;;
16099;SDS011;8154;50.830;12.082;2023-09-19T07:10:27;1.42;;;0.80;;
16099;SDS011;8154;50.830;12.082;2023-09-19T07:13:05;1.48;;;0.80;;
16099;SDS011;8154;50.830;12.082;2023-09-19T07:15:37;1.13;;;0.70;;
16099;SDS011;8154;50.830;12.082;2023-09-19T07:18:15;1.23;;;0.80;;
16099;SDS011;8154;50.830;12.082;2023-09-19T07:20:45;1.10;;;0.73;;
16099;SDS011;8154;50.830;12.082;2023-09-19T07:23:18;1.52;;;0.93;;
16099;SDS011;8154;50.830;12.082;2023-09-19T07:25:47;1.08;;;0.80;;
16099;SDS011;8154;50.830;12.082;2023-09-19T07:28:14;1.95;;;1.05;;
16099;SDS011;8154;50.830;12.082;2023-09-19T07:30:41;1.37;;;0.90;;
16099;SDS011;8154;50.830;12.082;2023-09-19T07:33:08;1.85;;;0.80;;
16099;SDS011;8154;50.830;12.082;2023-09-19T07:35:44;1.48;;;0.80;;
16099;SDS011;8154;50.830;12.082;2023-09-19T07:38:13;1.20;;;0.82;;
16099;SDS011;8154;50.830;12.082;2023-09-19T07:40:40;1.70;;;0.88;;
16099;SDS011;8154;50.830;12.082;2023-09-19T07:43:06;1.00;;;0.70;;
16099;SDS011;8154;50.830;12.082;2023-09-19T07:45:32;1.90;;;0.90;;
16099;SDS011;8154;50.830;12.082;2023-09-19T07:47:59;1.23;;;0.70;;
16099;SDS011;8154;50.830;12.082;2023-09-19T07:50:30;1.20;;;0.70;;
16099;SDS011;8154;50.830;12.082;2023-09-19T07:52:56;1.85;;;0.90;;
16099;SDS011;8154;50.830;12.082;2023-09-19T07:55:24;1.80;;;0.90;;
16099;SDS011;8154;50.830;12.082;2023-09-19T07:58:06;1.40;;;0.77;;
16099;SDS011;8154;50.830;12.082;2023-09-19T08:00:32;1.45;;;0.80;;
16099;SDS011;8154;50.830;12.082;2023-09-19T08:03:01;1.10;;;0.75;;
16099;SDS011;8154;50.830;12.082;2023-09-19T08:05:28;1.50;;;0.85;;
16099;SDS011;8154;50.830;12.082;2023-09-19T08:07:54;1.53;;;0.80;;
16099;SDS011;8154;50.830;12.082;2023-09-19T08:10:25;1.20;;;0.65;;
16099;SDS011;8154;50.830;12.082;2023-09-19T08:12:53;1.20;;;0.80;;
16099;SDS011;8154;50.830;12.082;2023-09-19T08:15:23;1.25;;;0.80;;
16099;SDS011;8154;50.830;12.082;2023-09-19T08:17:51;1.42;;;0.80;;
16099;SDS011;8154;50.830;12.082;2023-09-19T08:20:19;1.30;;;0.70;;
16099;SDS011;8154;50.830;12.082;2023-09-19T08:22:47;0.90;;;0.60;;
16099;SDS011;8154;50.830;12.082;2023-09-19T08:25:18;1.10;;;0.75;;
16099;SDS011;8154;50.830;12.082;2023-09-19T08:27:47;1.42;;;0.70;;
16099;SDS011;8154;50.830;12.082;2023-09-19T08:30:17;1.42;;;0.80;;
16099;SDS011;8154;50.830;12.082;2023-09-19T08:32:50;1.37;;;0.80;;
16099;SDS011;8154;50.830;12.082;2023-09-19T08:35:16;1.67;;;0.90;;
16099;SDS011;8154;50.830;12.082;2023-09-19T08:37:43;1.00;;;0.70;;
16099;SDS011;8154;50.830;12.082;2023-09-19T08:40:14;1.30;;;0.90;;
16099;SDS011;8154;50.830;12.082;2023-09-19T08:42:52;0.98;;;0.63;;
16099;SDS011;8154;50.830;12.082;2023-09-19T08:45:25;1.13;;;0.70;;
16099;SDS011;8154;50.830;12.082;2023-09-19T08:51:08;1.20;;;0.80;;
16099;SDS011;8154;50.830;12.082;2023-09-19T08:54:06;1.20;;;0.70;;
16099;SDS011;8154;50.830;12.082;2023-09-19T08:56:33;1.77;;;0.80;;
16099;SDS011;8154;50.830;12.082;2023-09-19T08:59:04;1.40;;;0.73;;
16099;SDS011;8154;50.830;12.082;2023-09-19T09:01:34;1.60;;;0.80;;
16099;SDS011;8154;50.830;12.082;2023-09-19T09:04:04;1.10;;;0.60;;
16099;SDS011;8154;50.830;12.082;2023-09-19T09:06:39;1.77;;;0.80;;
16099;SDS011;8154;50.830;12.082;2023-09-19T09:09:09;1.48;;;0.82;;
16099;SDS011;8154;50.830;12.082;2023-09-19T09:11:36;1.23;;;0.77;;
16099;SDS011;8154;50.830;12.082;2023-09-19T09:14:06;1.42;;;0.80;;
16099;SDS011;8154;50.830;12.082;2023-09-19T09:16:37;1.55;;;0.90;;
16099;SDS011;8154;50.830;12.082;2023-09-19T09:19:06;1.42;;;0.80;;
16099;SDS011;8154;50.830;12.082;2023-09-19T09:21:35;1.00;;;0.65;;
16099;SDS011;8154;50.830;12.082;2023-09-19T09:24:26;1.13;;;0.70;;
16099;SDS011;8154;50.830;12.082;2023-09-19T09:27:00;1.00;;;0.70;;
16099;SDS011;8154;50.830;12.082;2023-09-19T09:29:46;1.10;;;0.73;;
16099;SDS011;8154;50.830;12.082;2023-09-19T09:32:19;1.52;;;0.80;;
16099;SDS011;8154;50.830;12.082;2023-09-19T09:34:58;1.35;;;0.77;;
16099;SDS011;8154;50.830;12.082;2023-09-19T09:37:29;0.70;;;0.50;;
16099;SDS011;8154;50.830;12.082;2023-09-19T09:39:59;1.42;;;0.82;;
16099;SDS011;8154;50.830;12.082;2023-09-19T09:42:47;1.05;;;0.70;;
16099;SDS011;8154;50.830;12.082;2023-09-19T09:48:01;1.33;;;0.80;;
16099;SDS011;8154;50.830;12.082;2023-09-19T09:50:47;1.50;;;0.70;;
16099;SDS011;8154;50.830;12.082;2023-09-19T09:53:21;1.13;;;0.70;;
16099;SDS011;8154;50.830;12.082;2023-09-19T09:56:09;1.35;;;0.73;;
16099;SDS011;8154;50.830;12.082;2023-09-19T09:58:49;1.50;;;0.75;;
16099;SDS011;8154;50.830;12.082;2023-09-19T10:01:24;0.93;;;0.60;;
16099;SDS011;8154;50.830;12.082;2023-09-19T10:03:57;1.20;;;0.70;;
16099;SDS011;8154;50.830;12.082;2023-09-19T10:06:39;1.13;;;0.60;;
16099;SDS011;8154;50.830;12.082;2023-09-19T10:09:13;0.90;;;0.70;;
16099;SDS011;8154;50.830;12.082;2023-09-19T10:11:48;1.20;;;0.80;;
16099;SDS011;8154;50.830;12.082;2023-09-19T10:14:31;1.10;;;0.70;;
16099;SDS011;8154;50.830;12.082;2023-09-19T10:17:05;1.53;;;0.90;;
16099;SDS011;8154;50.830;12.082;2023-09-19T10:22:35;0.93;;;0.70;;
16099;SDS011;8154;50.830;12.082;2023-09-19T10:25:04;1.10;;;0.70;;
16099;SDS011;8154;50.830;12.082;2023-09-19T10:27:42;1.30;;;0.70;;
16099;SDS011;8154;50.830;12.082;2023-09-19T10:30:11;1.30;;;0.70;;
16099;SDS011;8154;50.830;12.082;2023-09-19T10:32:39;1.10;;;0.70;;
16099;SDS011;8154;50.830;12.082;2023-09-19T10:35:08;1.30;;;0.80;;
16099;SDS011;8154;50.830;12.082;2023-09-19T10:37:39;0.82;;;0.60;;
16099;SDS011;8154;50.830;12.082;2023-09-19T10:40:10;0.95;;;0.68;;
16099;SDS011;8154;50.830;12.082;2023-09-19T10:42:41;1.37;;;0.80;;
16099;SDS011;8154;50.830;12.082;2023-09-19T10:45:09;1.13;;;0.70;;
16099;SDS011;8154;50.830;12.082;2023-09-19T10:47:42;1.10;;;0.77;;
16099;SDS011;8154;50.830;12.082;2023-09-19T10:50:09;1.33;;;0.70;;
16099;SDS011;8154;50.830;12.082;2023-09-19T10:52:47;1.20;;;0.77;;
16099;SDS011;8154;50.830;12.082;2023-09-19T10:55:28;1.30;;;0.70;;
16099;SDS011;8154;50.830;12.082;2023-09-19T10:57:58;1.67;;;0.80;;
16099;SDS011;8154;50.830;12.082;2023-09-19T11:00:32;1.00;;;0.60;;
16099;SDS011;8154;50.830;12.082;2023-09-19T11:03:18;1.20;;;0.70;;
16099;SDS011;8154;50.830;12.082;2023-09-19T11:06:00;1.33;;;0.70;;
16099;SDS011;8154;50.830;12.082;2023-09-19T11:09:20;1.13;;;0.70;;
16099;SDS011;8154;50.830;12.082;2023-09-19T11:11:43;1.00;;;0.60;;
16099;SDS011;8154;50.830;12.082;2023-09-19T11:30:40;1.65;;;0.80;;
16099;SDS011;8154;50.830;12.082;2023-09-19T11:33:16;1.20;;;0.60;;
16099;SDS011;8154;50.830;12.082;2023-09-19T11:36:00;1.13;;;0.70;;
16099;SDS011;8154;50.830;12.082;2023-09-19T11:41:51;1.25;;;0.80;;
16099;SDS011;8154;50.830;12.082;2023-09-19T11:49:30;1.00;;;0.60;;
16099;SDS011;8154;50.830;12.082;2023-09-19T11:51:59;1.20;;;0.82;;
16099;SDS011;8154;50.830;12.082;2023-09-19T11:54:27;1.20;;;0.73;;
16099;SDS011;8154;50.830;12.082;2023-09-19T11:57:00;1.27;;;0.70;;
16099;SDS011;8154;50.830;12.082;2023-09-19T11:59:29;0.85;;;0.60;;
16099;SDS011;8154;50.830;12.082;2023-09-19T12:01:57;1.20;;;0.77;;
16099;SDS011;8154;50.830;12.082;2023-09-19T12:04:38;1.27;;;0.70;;
16099;SDS011;8154;50.830;12.082;2023-09-19T12:07:10;1.08;;;0.70;;
16099;SDS011;8154;50.830;12.082;2023-09-19T12:09:45;1.63;;;0.85;;
16099;SDS011;8154;50.830;12.082;2023-09-19T12:12:20;1.35;;;0.70;;
16099;SDS011;8154;50.830;12.082;2023-09-19T12:14:57;1.40;;;0.87;;
16099;SDS011;8154;50.830;12.082;2023-09-19T12:17:36;0.80;;;0.60;;
16099;SDS011;8154;50.830;12.082;2023-09-19T12:20:04;0.82;;;0.60;;
16099;SDS011;8154;50.830;12.082;2023-09-19T12:22:41;0.70;;;0.50;;
16099;SDS011;8154;50.830;12.082;2023-09-19T12:25:09;1.10;;;0.60;;
16099;SDS011;8154;50.830;12.082;2023-09-19T12:27:47;1.00;;;0.67;;
16099;SDS011;8154;50.830;12.082;2023-09-19T12:30:32;0.90;;;0.60;;
16099;SDS011;8154;50.830;12.082;2023-09-19T12:33:02;1.08;;;0.77;;
16099;SDS011;8154;50.830;12.082;2023-09-19T12:35:31;1.10;;;0.70;;
16099;SDS011;8154;50.830;12.082;2023-09-19T12:38:02;1.50;;;0.82;;
16099;SDS011;8154;50.830;12.082;2023-09-19T12:40:29;1.13;;;0.67;;
16099;SDS011;8154;50.830;12.082;2023-09-19T12:42:59;0.75;;;0.60;;
16099;SDS011;8154;50.830;12.082;2023-09-19T12:45:29;1.02;;;0.70;;
16099;SDS011;8154;50.830;12.082;2023-09-19T12:53:35;1.00;;;0.60;;
16099;SDS011;8154;50.830;12.082;2023-09-19T12:56:12;1.27;;;0.60;;
16099;SDS011;8154;50.830;12.082;2023-09-19T13:01:21;0.90;;;0.80;;
16099;SDS011;8154;50.830;12.082;2023-09-19T13:04:15;1.58;;;0.80;;
16099;SDS011;8154;50.830;12.082;2023-09-19T13:06:56;1.20;;;0.63;;
16099;SDS011;8154;50.830;12.082;2023-09-19T13:09:27;1.05;;;0.63;;
16099;SDS011;8154;50.830;12.082;2023-09-19T13:12:05;1.33;;;0.65;;
16099;SDS011;8154;50.830;12.082;2023-09-19T13:15:10;2.03;;;0.80;;
16099;SDS011;8154;50.830;12.082;2023-09-19T13:17:46;1.08;;;0.60;;
16099;SDS011;8154;50.830;12.082;2023-09-19T13:20:24;1.13;;;0.60;;
16099;SDS011;8154;50.830;12.082;2023-09-19T13:22:56;1.65;;;0.70;;
16099;SDS011;8154;50.830;12.082;2023-09-19T13:25:26;1.30;;;0.70;;
16099;SDS011;8154;50.830;12.082;2023-09-19T13:27:56;1.05;;;0.70;;
16099;SDS011;8154;50.830;12.082;2023-09-19T13:30:23;1.25;;;0.82;;
16099;SDS011;8154;50.830;12.082;2023-09-19T13:33:04;1.00;;;0.67;;
16099;SDS011;8154;50.830;12.082;2023-09-19T13:35:33;1.10;;;0.70;;
16099;SDS011;8154;50.830;12.082;2023-09-19T13:37:59;1.33;;;0.75;;
16099;SDS011;8154;50.830;12.082;2023-09-19T13:40:26;1.08;;;0.70;;
16099;SDS011;8154;50.830;12.082;2023-09-19T13:42:56;1.55;;;0.80;;
16099;SDS011;8154;50.830;12.082;2023-09-19T13:45:23;1.10;;;0.70;;
16099;SDS011;8154;50.830;12.082;2023-09-19T13:47:54;1.05;;;0.65;;
16099;SDS011;8154;50.830;12.082;2023-09-19T13:50:21;1.10;;;0.70;;
16099;SDS011;8154;50.830;12.082;2023-09-19T13:52:50;1.20;;;0.60;;
16099;SDS011;8154;50.830;12.082;2023-09-19T13:55:17;1.52;;;0.80;;
16099;SDS011;8154;50.830;12.082;2023-09-19T13:57:49;1.83;;;0.80;;
16099;SDS011;8154;50.830;12.082;2023-09-19T14:00:22;1.38;;;0.70;;
16099;SDS011;8154;50.830;12.082;2023-09-19T14:02:55;1.25;;;0.60;;
16099;SDS011;8154;50.830;12.082;2023-09-19T14:05:22;1.20;;;0.70;;
16099;SDS011;8154;50.830;12.082;2023-09-19T14:07:49;1.35;;;0.80;;
16099;SDS011;8154;50.830;12.082;2023-09-19T14:10:15;1.30;;;0.70;;
16099;SDS011;8154;50.830;12.082;2023-09-19T14:12:46;1.35;;;0.77;;
16099;SDS011;8154;50.830;12.082;2023-09-19T14:15:13;1.50;;;0.70;;
16099;SDS011;8154;50.830;12.082;2023-09-19T14:17:40;1.55;;;0.80;;
16099;SDS011;8154;50.830;12.082;2023-09-19T14:20:13;1.48;;;0.80;;
16099;SDS011;8154;50.830;12.082;2023-09-19T14:22:56;1.40;;;0.70;;
16099;SDS011;8154;50.830;12.082;2023-09-19T14:25:25;1.50;;;0.75;;
16099;SDS011;8154;50.830;12.082;2023-09-19T14:27:51;1.00;;;0.70;;
16099;SDS011;8154;50.830;12.082;2023-09-19T14:30:17;0.82;;;0.60;;
16099;SDS011;8154;50.830;12.082;2023-09-19T14:32:44;1.05;;;0.63;;
16099;SDS011;8154;50.830;12.082;2023-09-19T14:35:10;1.20;;;0.70;;
16099;SDS011;8154;50.830;12.082;2023-09-19T14:37:39;1.10;;;0.70;;
16099;SDS011;8154;50.830;12.082;2023-09-19T14:40:06;1.30;;;0.80;;
16099;SDS011;8154;50.830;12.082;2023-09-19T14:42:35;1.50;;;0.73;;
16099;SDS011;8154;50.830;12.082;2023-09-19T14:45:04;1.13;;;0.70;;
16099;SDS011;8154;50.830;12.082;2023-09-19T14:47:31;1.10;;;0.80;;
16099;SDS011;8154;50.830;12.082;2023-09-19T14:50:02;0.90;;;0.68;;
16099;SDS011;8154;50.830;12.082;2023-09-19T14:52:33;1.23;;;0.70;;
16099;SDS011;8154;50.830;12.082;2023-09-19T14:55:00;1.48;;;0.73;;
16099;SDS011;8154;50.830;12.082;2023-09-19T14:57:27;1.20;;;0.70;;
16099;SDS011;8154;50.830;12.082;2023-09-19T14:59:53;1.30;;;0.70;;
16099;SDS011;8154;50.830;12.082;2023-09-19T15:02:20;1.38;;;0.70;;
16099;SDS011;8154;50.830;12.082;2023-09-19T15:04:51;1.13;;;0.70;;
16099;SDS011;8154;50.830;12.082;2023-09-19T15:07:19;1.05;;;0.70;;
16099;SDS011;8154;50.830;12.082;2023-09-19T15:09:45;1.23;;;0.63;;
16099;SDS011;8154;50.830;12.082;2023-09-19T15:12:12;1.33;;;0.70;;
16099;SDS011;8154;50.830;12.082;2023-09-19T15:14:40;1.45;;;0.82;;
16099;SDS011;8154;50.830;12.082;2023-09-19T15:17:09;1.10;;;0.80;;
16099;SDS011;8154;50.830;12.082;2023-09-19T15:19:37;1.48;;;0.75;;
16099;SDS011;8154;50.830;12.082;2023-09-19T15:22:05;1.25;;;0.80;;
16099;SDS011;8154;50.830;12.082;2023-09-19T15:24:31;1.67;;;0.80;;
16099;SDS011;8154;50.830;12.082;2023-09-19T15:26:58;1.00;;;0.70;;
16099;SDS011;8154;50.830;12.082;2023-09-19T15:29:24;1.38;;;0.70;;
16099;SDS011;8154;50.830;12.082;2023-09-19T15:31:50;1.25;;;0.70;;
16099;SDS011;8154;50.830;12.082;2023-09-19T15:34:17;1.33;;;0.73;;
16099;SDS011;8154;50.830;12.082;2023-09-19T15:36:43;1.13;;;0.80;;
16099;SDS011;8154;50.830;12.082;2023-09-19T15:39:10;1.90;;;0.80;;
16099;SDS011;8154;50.830;12.082;2023-09-19T15:41:42;2.00;;;0.80;;
16099;SDS011;8154;50.830;12.082;2023-09-19T15:44:12;2.13;;;0.98;;
16099;SDS011;8154;50.830;12.082;2023-09-19T15:46:42;1.95;;;0.98;;
16099;SDS011;8154;50.830;12.082;2023-09-19T15:49:08;1.30;;;0.83;;
16099;SDS011;8154;50.830;12.082;2023-09-19T15:51:34;1.80;;;0.80;;
16099;SDS011;8154;50.830;12.082;2023-09-19T15:54:10;1.45;;;0.80;;
16099;SDS011;8154;50.830;12.082;2023-09-19T15:56:44;1.63;;;0.77;;
16099;SDS011;8154;50.830;12.082;2023-09-19T15:59:12;1.33;;;0.80;;
16099;SDS011;8154;50.830;12.082;2023-09-19T16:01:40;2.10;;;1.00;;
16099;SDS011;8154;50.830;12.082;2023-09-19T16:04:11;1.25;;;0.75;;
16099;SDS011;8154;50.830;12.082;2023-09-19T16:06:40;1.50;;;0.80;;
16099;SDS011;8154;50.830;12.082;2023-09-19T16:09:09;2.15;;;0.90;;